Time;durP1;ratioP1;P1;durP2;ratioP2;P2;SDS_P1;SDS_P2;PMS_P1;PMS_P2;Temp;Humidity;BMP_temperature;BMP_pressure;BME280_temperature;BME280_humidity;BME280_pressure;Samples;Min_cycle;Max_cycle;Signal;HPM_P1;HPM_P2
2023/10/02 00:01:06;;;;;;;10.90;6.50;;;;;;;17.25;83.14;101347.41;5114793;28;20611;-82
2023/10/02 00:03:33;;;;;;;12.10;7.03;;;;;;;17.22;83.44;101350.34;5101078;28;20225;-82
2023/10/02 00:06:00;;;;;;;12.57;6.50;;;;;;;17.23;83.85;101345.81;5110125;28;20202;-84
2023/10/02 00:08:40;;;;;;;12.07;6.23;;;;;;;17.21;83.76;101345.94;5103544;28;20209;-83
2023/10/02 00:14:22;;;;;;;12.23;6.93;;;;;;;17.24;83.33;101353.75;5107752;28;20233;-83
2023/10/02 00:17:03;;;;;;;12.97;6.73;;;;;;;17.26;83.12;101350.94;5113927;28;20290;-82
2023/10/02 00:19:35;;;;;;;11.10;6.53;;;;;;;17.27;82.92;101356.22;5110983;28;20262;-83
2023/10/02 00:22:05;;;;;;;11.83;6.57;;;;;;;17.28;82.76;101349.84;5110358;28;20283;-83
2023/10/02 00:24:35;;;;;;;10.83;6.67;;;;;;;17.28;82.66;101351.69;5109586;28;20266;-83
2023/10/02 00:27:02;;;;;;;9.30;6.03;;;;;;;17.30;82.54;101360.50;5110059;28;20289;-82
2023/10/02 00:29:29;;;;;;;11.27;6.40;;;;;;;17.27;82.70;101345.44;5111979;28;20212;-83
2023/10/02 00:31:56;;;;;;;11.23;6.03;;;;;;;17.27;82.64;101345.44;5113022;28;20217;-82
2023/10/02 00:34:31;;;;;;;9.97;6.30;;;;;;;17.26;82.49;101350.94;5111233;28;20234;-82
2023/10/02 00:37:06;;;;;;;9.37;6.27;;;;;;;17.23;82.39;101349.34;5110474;28;20197;-82
2023/10/02 00:39:36;;;;;;;11.17;6.83;;;;;;;17.20;82.47;101348.75;5111569;28;20199;-82
2023/10/02 00:44:57;;;;;;;13.17;6.90;;;;;;;17.12;82.60;101352.06;5061423;28;20839;-82
2023/10/02 00:47:45;;;;;;;10.93;7.00;;;;;;;17.06;82.90;101344.47;5108587;28;20220;-83
2023/10/02 00:50:16;;;;;;;11.57;6.63;;;;;;;17.02;83.17;101346.53;5109397;28;20204;-82
2023/10/02 00:52:46;;;;;;;12.30;6.20;;;;;;;16.97;83.40;101346.06;5106498;28;20204;-83
2023/10/02 00:55:17;;;;;;;11.87;6.67;;;;;;;16.90;83.83;101347.50;5113393;28;20230;-82
2023/10/02 00:57:45;;;;;;;11.57;6.93;;;;;;;16.87;84.18;101346.91;5105859;28;20251;-82
2023/10/02 01:00:19;;;;;;;11.87;7.13;;;;;;;16.84;84.73;101342.59;5113649;28;20778;-82
2023/10/02 01:02:47;;;;;;;11.07;7.10;;;;;;;16.80;84.91;101346.53;5109745;28;20200;-82
2023/10/02 01:05:16;;;;;;;11.90;6.57;;;;;;;16.83;85.21;101348.13;5109827;28;20302;-82
2023/10/02 01:07:46;;;;;;;11.67;6.70;;;;;;;16.80;85.46;101346.53;5106184;28;20208;-82
2023/10/02 01:10:23;;;;;;;9.70;6.07;;;;;;;16.77;85.71;101346.78;5106495;28;20210;-82
2023/10/02 01:12:51;;;;;;;10.90;7.00;;;;;;;16.75;85.81;101350.56;5108757;28;20208;-83
2023/10/02 01:15:20;;;;;;;12.63;6.57;;;;;;;16.76;86.09;101349.59;5111117;28;20877;-83
2023/10/02 01:17:48;;;;;;;15.43;6.40;;;;;;;16.75;86.12;101348.72;5114055;28;20677;-81
2023/10/02 01:20:23;;;;;;;14.27;7.50;;;;;;;16.75;86.21;101348.72;5109811;28;20204;-83
2023/10/02 01:22:55;;;;;;;9.67;6.13;;;;;;;16.75;86.27;101354.09;5109797;28;20226;-82
2023/10/02 01:25:24;;;;;;;13.43;6.87;;;;;;;16.78;86.33;101347.63;5114101;28;20228;-82
2023/10/02 01:27:55;;;;;;;11.83;6.53;;;;;;;16.80;86.44;101343.00;5104904;28;20200;-82
2023/10/02 01:30:23;;;;;;;11.53;6.57;;;;;;;16.82;86.25;101343.72;5106881;28;20212;-82
2023/10/02 01:33:06;;;;;;;14.53;6.93;;;;;;;16.89;85.81;101342.25;5107395;28;20199;-82
2023/10/02 01:35:36;;;;;;;10.43;6.93;;;;;;;16.86;85.87;101348.72;5105063;28;20261;-83
2023/10/02 01:38:06;;;;;;;10.23;6.30;;;;;;;16.88;85.69;101343.22;5109178;28;20231;-82
2023/10/02 01:40:34;;;;;;;10.57;6.97;;;;;;;16.84;85.70;101342.59;5103188;28;20543;-82
2023/10/02 01:43:12;;;;;;;10.50;6.13;;;;;;;16.82;85.89;101338.34;5107826;28;20197;-81
2023/10/02 01:45:42;;;;;;;12.20;6.60;;;;;;;16.82;86.01;101338.34;5107883;28;20196;-82
2023/10/02 01:48:12;;;;;;;12.83;7.20;;;;;;;16.82;85.84;101341.03;5111882;28;20660;-82
2023/10/02 01:50:39;;;;;;;12.13;6.87;;;;;;;16.83;85.62;101332.84;5110682;28;20225;-81
2023/10/02 01:53:06;;;;;;;11.27;6.47;;;;;;;16.87;85.30;101325.38;5110544;28;20201;-82
2023/10/02 01:55:35;;;;;;;11.80;6.73;;;;;;;16.91;85.14;101325.00;5109117;28;20251;-82
2023/10/02 01:58:17;;;;;;;10.60;6.43;;;;;;;16.93;84.58;101325.75;5112378;28;20208;-82
2023/10/02 02:00:45;;;;;;;11.97;7.00;;;;;;;16.93;84.42;101331.13;5108002;28;20208;-81
2023/10/02 02:03:15;;;;;;;11.57;6.60;;;;;;;16.91;84.44;101327.72;5104646;28;20257;-82
2023/10/02 02:05:44;;;;;;;13.10;7.20;;;;;;;16.89;84.41;101321.59;5112484;28;20204;-83
2023/10/02 02:08:22;;;;;;;10.53;6.83;;;;;;;16.90;84.45;101325.13;5106496;28;20638;-81
2023/10/02 02:10:51;;;;;;;11.53;7.10;;;;;;;16.89;84.28;101323.41;5104282;28;20650;-82
2023/10/02 02:13:19;;;;;;;10.73;6.60;;;;;;;16.88;84.11;101321.69;5109084;28;20200;-82
2023/10/02 02:15:47;;;;;;;9.80;6.17;;;;;;;16.85;84.34;101324.63;5099655;28;20288;-83
2023/10/02 02:18:14;;;;;;;12.53;6.63;;;;;;;16.84;84.47;101317.56;5105179;28;20204;-84
2023/10/02 02:20:57;;;;;;;12.20;7.30;;;;;;;16.82;84.71;101319.53;5108290;28;20234;-83
2023/10/02 02:23:26;;;;;;;11.57;7.10;;;;;;;16.81;84.60;101320.50;5108509;28;20199;-84
2023/10/02 02:25:54;;;;;;;15.53;7.87;;;;;;;16.77;84.56;101329.78;5104976;28;20229;-83
2023/10/02 02:28:21;;;;;;;12.93;7.00;;;;;;;16.78;84.81;101324.28;5103040;28;20231;-83
2023/10/02 02:30:48;;;;;;;14.30;6.80;;;;;;;16.76;84.86;101322.69;5108162;28;20208;-82
2023/10/02 02:33:15;;;;;;;12.00;7.37;;;;;;;16.74;84.99;101330.00;5109682;28;20204;-82
2023/10/02 02:35:44;;;;;;;8.83;6.23;;;;;;;16.70;85.08;101318.63;5108215;28;20238;-82
2023/10/02 02:38:14;;;;;;;11.23;7.17;;;;;;;16.70;84.96;101321.31;5107757;28;20216;-82
2023/10/02 02:40:41;;;;;;;12.07;6.97;;;;;;;16.61;85.00;101314.81;5108535;28;20200;-82
2023/10/02 02:43:19;;;;;;;11.47;6.70;;;;;;;16.56;85.53;101322.38;5109581;28;20210;-82
2023/10/02 02:45:46;;;;;;;13.20;6.70;;;;;;;16.50;85.90;101322.84;5110222;28;20198;-82
2023/10/02 02:48:15;;;;;;;14.90;7.93;;;;;;;16.46;86.00;101324.06;5111303;28;20274;-83
2023/10/02 02:50:43;;;;;;;14.70;7.80;;;;;;;16.44;86.14;101327.84;5106096;28;20223;-83
2023/10/02 02:53:23;;;;;;;13.37;7.40;;;;;;;16.40;86.70;101311.09;5106726;28;20209;-82
2023/10/02 02:56:14;;;;;;;11.90;7.40;;;;;;;16.36;86.49;101314.97;5102211;28;20696;-83
2023/10/02 02:58:44;;;;;;;15.40;7.53;;;;;;;16.33;86.75;101328.66;5107164;28;20275;-83
2023/10/02 03:01:14;;;;;;;12.30;7.27;;;;;;;16.28;87.04;101323.66;5107638;28;20199;-83
2023/10/02 03:03:44;;;;;;;11.70;7.17;;;;;;;16.25;87.09;101318.50;5096364;28;20246;-81
2023/10/02 03:06:17;;;;;;;13.00;7.43;;;;;;;16.24;87.36;101322.16;5113237;28;20627;-82
2023/10/02 03:08:44;;;;;;;13.00;7.27;;;;;;;16.21;87.67;101317.03;5104228;28;20207;-82
2023/10/02 03:11:11;;;;;;;17.00;8.07;;;;;;;16.19;87.70;101327.03;5101190;28;20214;-82
2023/10/02 03:13:40;;;;;;;14.27;7.43;;;;;;;16.17;87.88;101320.06;5101762;28;20229;-82
2023/10/02 03:16:16;;;;;;;13.97;7.30;;;;;;;16.16;88.18;101323.72;5113295;28;20737;-81
2023/10/02 03:18:44;;;;;;;11.47;7.20;;;;;;;16.14;88.36;101325.66;5116662;28;20665;-82
2023/10/02 03:21:16;;;;;;;15.73;7.60;;;;;;;16.11;88.28;101320.53;5111223;28;20203;-83
2023/10/02 03:23:43;;;;;;;12.53;8.00;;;;;;;16.07;88.52;101322.59;5104473;28;20223;-82
2023/10/02 03:26:26;;;;;;;11.80;7.10;;;;;;;16.06;88.62;101318.19;5110603;28;20712;-82
2023/10/02 03:29:00;;;;;;;12.97;7.40;;;;;;;16.03;88.72;101317.56;5103438;28;20209;-83
2023/10/02 03:31:35;;;;;;;11.33;6.93;;;;;;;15.99;89.07;101322.31;5109125;28;20220;-82
2023/10/02 03:34:24;;;;;;;11.67;7.40;;;;;;;15.97;89.02;101314.34;5110167;28;20221;-83
2023/10/02 03:36:49;;;;;;;12.73;7.40;;;;;;;15.92;89.27;101305.81;5111100;28;20313;-83
2023/10/02 03:39:23;;;;;;;12.17;7.20;;;;;;;15.91;89.53;101306.78;5104844;28;20211;-83
2023/10/02 03:41:55;;;;;;;10.87;7.00;;;;;;;15.89;89.55;101307.88;5103096;28;20913;-83
2023/10/02 03:44:22;;;;;;;14.90;7.63;;;;;;;15.86;89.78;101305.41;5113143;28;20219;-82
2023/10/02 03:46:51;;;;;;;12.00;7.20;;;;;;;15.84;90.03;101305.50;5108736;28;20210;-82
2023/10/02 03:49:19;;;;;;;13.27;7.10;;;;;;;15.81;89.70;101295.00;5111381;28;20206;-82
2023/10/02 03:51:45;;;;;;;10.03;6.63;;;;;;;15.77;89.34;101296.19;5110928;28;20219;-82
2023/10/02 03:54:18;;;;;;;13.90;7.10;;;;;;;15.73;89.62;101301.94;5111406;28;20248;-82
2023/10/02 03:56:47;;;;;;;11.50;6.67;;;;;;;15.69;90.07;101292.38;5110142;28;20232;-83
2023/10/02 03:59:14;;;;;;;13.90;7.97;;;;;;;15.65;90.26;101293.56;5111150;28;20207;-82
2023/10/02 04:01:41;;;;;;;13.40;8.07;;;;;;;15.60;90.59;101289.38;5114206;28;20222;-82
2023/10/02 04:04:19;;;;;;;15.23;7.97;;;;;;;15.58;90.84;101285.13;5110796;28;20220;-82
2023/10/02 04:06:47;;;;;;;14.73;7.33;;;;;;;15.55;91.03;101288.91;5111016;28;20267;-83
2023/10/02 04:09:21;;;;;;;13.97;6.87;;;;;;;15.52;91.27;101290.91;5106836;28;20244;-82
2023/10/02 04:11:50;;;;;;;11.80;6.97;;;;;;;15.49;91.72;101293.81;5109007;28;20225;-82
2023/10/02 04:14:31;;;;;;;11.60;6.97;;;;;;;15.47;91.77;101291.25;5107177;28;20659;-82
2023/10/02 04:17:09;;;;;;;12.37;7.30;;;;;;;15.47;92.29;101287.69;5107710;28;20261;-83
2023/10/02 04:19:40;;;;;;;13.00;7.43;;;;;;;15.44;92.45;101285.22;5113384;28;20225;-84
2023/10/02 04:22:07;;;;;;;12.97;7.10;;;;;;;15.41;92.77;101283.63;5105975;28;20205;-82
2023/10/02 04:24:51;;;;;;;13.23;7.60;;;;;;;15.41;93.43;101282.78;5109338;28;20246;-83
2023/10/02 04:27:21;;;;;;;14.50;7.13;;;;;;;15.43;94.02;101284.38;5106626;28;20204;-83
2023/10/02 04:30:18;;;;;;;12.50;7.23;;;;;;;15.46;94.55;101286.84;5107073;28;20222;-84
2023/10/02 04:32:42;;;;;;;12.20;7.53;;;;;;;15.50;94.46;101287.47;5108325;28;20230;-83
2023/10/02 04:37:51;;;;;;;14.37;7.33;;;;;;;15.59;94.85;101281.44;5105306;28;20303;-82
2023/10/02 04:40:22;;;;;;;12.33;7.43;;;;;;;15.66;95.00;101285.41;5108777;28;20241;-83
2023/10/02 04:42:58;;;;;;;13.73;7.10;;;;;;;15.71;94.83;101280.56;5108061;28;20206;-83
2023/10/02 04:45:26;;;;;;;12.77;6.97;;;;;;;15.76;94.56;101282.91;5107478;28;20226;-83
2023/10/02 04:47:54;;;;;;;13.10;7.17;;;;;;;15.79;94.40;101283.50;5109973;28;20214;-82
2023/10/02 04:50:39;;;;;;;11.27;6.97;;;;;;;15.81;94.52;101283.41;5105084;28;20211;-82
2023/10/02 04:53:19;;;;;;;12.17;7.20;;;;;;;15.84;93.91;101280.47;5106720;28;20211;-82
2023/10/02 04:55:48;;;;;;;13.57;7.73;;;;;;;15.84;92.94;101286.72;5113918;28;20224;-82
2023/10/02 04:58:19;;;;;;;11.67;6.67;;;;;;;15.84;92.44;101291.22;5109305;28;20670;-81
2023/10/02 05:03:27;;;;;;;12.57;7.17;;;;;;;15.83;91.82;101298.44;5106920;28;20206;-82
2023/10/02 05:05:58;;;;;;;12.10;7.20;;;;;;;15.81;92.24;101292.31;5113471;28;20202;-82
2023/10/02 05:08:33;;;;;;;12.10;7.50;;;;;;;15.82;92.14;101298.53;5105843;28;20193;-82
2023/10/02 05:11:05;;;;;;;12.97;7.53;;;;;;;15.81;92.48;101297.69;5100710;28;20210;-82
2023/10/02 05:13:53;;;;;;;11.80;7.50;;;;;;;15.82;92.79;101295.84;5109602;28;20228;-82
2023/10/02 05:16:26;;;;;;;15.10;8.10;;;;;;;15.82;93.01;101288.66;5114345;28;20259;-82
2023/10/02 05:18:54;;;;;;;14.03;7.30;;;;;;;15.86;93.18;101284.78;5108594;28;20198;-81
2023/10/02 05:21:35;;;;;;;10.77;7.13;;;;;;;15.91;93.06;101285.28;5102302;28;20193;-81
2023/10/02 05:24:03;;;;;;;11.67;7.40;;;;;;;15.94;92.78;101287.72;5111406;28;20205;-82
2023/10/02 05:26:36;;;;;;;12.13;7.30;;;;;;;15.99;93.03;101284.69;5114778;28;20206;-81
2023/10/02 05:29:05;;;;;;;12.87;7.10;;;;;;;16.02;92.53;101278.22;5114622;28;20281;-82
2023/10/02 05:31:35;;;;;;;13.27;7.00;;;;;;;16.06;92.46;101285.94;5111022;28;20203;-81
2023/10/02 05:34:07;;;;;;;13.50;7.57;;;;;;;16.11;91.58;101278.41;5107392;28;20218;-82
2023/10/02 05:36:35;;;;;;;11.97;7.43;;;;;;;16.15;91.57;101274.47;5112838;28;20243;-83
2023/10/02 05:41:46;;;;;;;13.30;6.50;;;;;;;16.20;91.34;101268.75;5112788;28;20272;-83
2023/10/02 05:44:19;;;;;;;11.53;7.07;;;;;;;16.25;90.93;101280.03;5108779;28;20221;-81
2023/10/02 05:46:57;;;;;;;14.10;7.30;;;;;;;16.31;90.85;101283.06;5112200;28;20210;-82
2023/10/02 05:49:24;;;;;;;11.13;7.10;;;;;;;16.38;90.52;101280.78;5108777;28;20201;-82
2023/10/02 05:51:55;;;;;;;13.73;7.80;;;;;;;16.44;90.10;101282.16;5103942;28;20219;-81
2023/10/02 05:54:26;;;;;;;12.67;7.10;;;;;;;16.46;89.81;101281.06;5110924;28;20222;-82
2023/10/02 05:56:54;;;;;;;11.80;7.80;;;;;;;16.48;89.71;101279.06;5106375;28;20223;-82
2023/10/02 05:59:24;;;;;;;10.80;6.70;;;;;;;16.55;89.50;101282.16;5111398;28;20216;-82
2023/10/02 06:01:52;;;;;;;12.97;7.03;;;;;;;16.59;89.04;101279.13;5108985;28;20290;-83
2023/10/02 06:04:23;;;;;;;14.30;7.53;;;;;;;16.63;89.03;101282.44;5112460;28;20247;-81
2023/10/02 06:06:56;;;;;;;12.07;7.00;;;;;;;16.65;88.81;101284.06;5103867;28;20198;-81
2023/10/02 06:09:37;;;;;;;10.53;6.80;;;;;;;16.70;88.55;101288.19;5105875;28;20203;-82
2023/10/02 06:12:05;;;;;;;10.60;7.10;;;;;;;16.74;88.28;101297.72;5109004;28;20297;-81
2023/10/02 06:14:38;;;;;;;12.20;6.67;;;;;;;16.78;88.09;101294.69;5103937;28;20222;-81
2023/10/02 06:17:10;;;;;;;13.17;7.50;;;;;;;16.83;87.84;101292.50;5114222;28;20255;-80
2023/10/02 06:19:42;;;;;;;12.37;7.27;;;;;;;16.88;87.42;101306.41;5108297;28;20208;-81
2023/10/02 06:22:09;;;;;;;11.63;6.80;;;;;;;16.92;87.06;101298.97;5113951;28;20223;-79
2023/10/02 06:24:37;;;;;;;12.27;7.07;;;;;;;16.96;87.20;101300.44;5113230;28;20679;-81
2023/10/02 06:27:13;;;;;;;11.80;6.73;;;;;;;16.99;87.16;101298.38;5107609;28;20206;-81
2023/10/02 06:29:44;;;;;;;16.00;7.87;;;;;;;17.02;87.01;101301.78;5112245;28;20294;-80
2023/10/02 06:32:14;;;;;;;11.47;7.13;;;;;;;17.02;87.01;101304.50;5107624;28;20600;-81
2023/10/02 06:34:43;;;;;;;10.90;6.77;;;;;;;17.07;86.72;101295.03;5111194;28;20229;-80
2023/10/02 06:37:12;;;;;;;12.97;7.07;;;;;;;17.09;86.66;101301.16;5108164;28;20710;-81
2023/10/02 06:39:42;;;;;;;13.07;7.23;;;;;;;17.14;86.34;101293.59;5109624;28;20213;-80
2023/10/02 06:42:10;;;;;;;11.77;7.30;;;;;;;17.18;85.81;101296.88;5111752;28;20222;-81
2023/10/02 06:44:42;;;;;;;11.73;6.77;;;;;;;17.22;85.63;101292.94;5109427;28;20230;-80
2023/10/02 06:47:13;;;;;;;11.43;7.57;;;;;;;17.25;85.45;101298.94;5109727;28;20264;-79
2023/10/02 06:49:40;;;;;;;13.87;7.10;;;;;;;17.31;85.61;101295.75;5111529;28;20242;-79
2023/10/02 06:52:16;;;;;;;12.13;7.17;;;;;;;17.38;85.48;101297.97;5106719;28;20759;-80
2023/10/02 06:54:45;;;;;;;12.53;6.97;;;;;;;17.42;84.72;101297.56;5113195;28;20222;-80
2023/10/02 06:57:13;;;;;;;12.30;7.27;;;;;;;17.47;84.70;101299.91;5093816;28;20236;-82
2023/10/02 06:59:41;;;;;;;10.87;7.50;;;;;;;17.53;84.32;101308.34;5108483;28;20219;-81
2023/10/02 07:02:09;;;;;;;11.33;7.13;;;;;;;17.59;84.25;101310.50;5104909;28;20199;-83
2023/10/02 07:04:36;;;;;;;12.57;7.00;;;;;;;17.66;84.20;101308.22;5112008;28;20224;-82
2023/10/02 07:07:10;;;;;;;13.33;7.37;;;;;;;17.71;83.62;101306.00;5101782;28;20284;-82
2023/10/02 07:09:37;;;;;;;10.00;6.97;;;;;;;17.76;83.26;101309.16;5109121;28;20206;-82
2023/10/02 07:12:13;;;;;;;11.20;7.07;;;;;;;17.82;82.99;101316.72;5112504;28;20725;-82
2023/10/02 07:14:42;;;;;;;13.57;7.17;;;;;;;17.85;82.81;101312.94;5093426;28;20256;-83
2023/10/02 07:17:16;;;;;;;13.73;7.57;;;;;;;17.89;82.53;101315.25;5104093;28;20236;-82
2023/10/02 07:19:50;;;;;;;12.87;7.70;;;;;;;17.92;82.21;101323.03;5101067;28;20197;-82
2023/10/02 07:22:22;;;;;;;13.87;7.43;;;;;;;17.93;82.27;101322.06;5111564;28;20216;-83
2023/10/02 07:24:49;;;;;;;10.87;7.17;;;;;;;18.00;81.81;101323.28;5109821;28;20233;-83
2023/10/02 07:27:23;;;;;;;13.63;7.23;;;;;;;18.03;82.03;101328.41;5108727;28;20195;-82
2023/10/02 07:29:52;;;;;;;15.50;7.17;;;;;;;18.12;81.76;101331.31;5096973;28;20263;-83
2023/10/02 07:32:19;;;;;;;14.10;7.87;;;;;;;18.17;81.86;101324.56;5098289;28;20500;-82
2023/10/02 07:34:46;;;;;;;12.30;7.27;;;;;;;18.25;81.58;101323.91;5110702;28;20226;-81
2023/10/02 07:37:16;;;;;;;12.00;7.37;;;;;;;18.33;80.90;101330.34;5112416;28;20688;-81
2023/10/02 07:39:42;;;;;;;12.60;7.13;;;;;;;18.42;80.70;101326.03;5112520;28;20207;-82
2023/10/02 07:42:10;;;;;;;11.43;7.10;;;;;;;18.52;79.53;101328.78;5095563;28;20220;-82
2023/10/02 07:44:39;;;;;;;12.03;6.80;;;;;;;18.56;78.98;101330.22;5106923;28;20265;-82
2023/10/02 07:47:10;;;;;;;12.13;7.43;;;;;;;18.60;78.70;101334.41;5112153;28;20205;-83
2023/10/02 07:49:38;;;;;;;12.87;7.63;;;;;;;18.65;78.61;101330.31;5110459;28;20199;-82
2023/10/02 07:52:06;;;;;;;13.07;7.80;;;;;;;18.76;78.28;101321.31;5106375;28;20200;-83
2023/10/02 07:54:44;;;;;;;11.33;6.80;;;;;;;18.87;78.01;101310.41;5097791;28;20230;-82
2023/10/02 07:57:13;;;;;;;12.13;7.23;;;;;;;18.98;76.86;101304.94;5103781;28;20714;-82
2023/10/02 07:59:43;;;;;;;12.57;7.23;;;;;;;19.10;76.53;101307.53;5111823;28;20650;-82
2023/10/02 08:02:22;;;;;;;11.53;7.17;;;;;;;19.19;76.14;101312.97;5097057;28;20197;-82
2023/10/02 08:04:51;;;;;;;14.10;8.13;;;;;;;19.30;74.68;101310.19;5112472;28;20227;-82
2023/10/02 08:07:18;;;;;;;10.90;6.63;;;;;;;19.40;74.41;101312.88;5110654;28;20201;-80
2023/10/02 08:09:47;;;;;;;16.70;7.83;;;;;;;19.48;74.44;101312.22;5118919;28;20209;-80
2023/10/02 08:12:30;;;;;;;10.83;7.00;;;;;;;19.58;73.95;101307.72;5106671;28;20224;-79
2023/10/02 08:15:02;;;;;;;12.03;7.10;;;;;;;19.72;73.38;101304.59;5113231;28;20907;-80
2023/10/02 08:17:59;;;;;;;12.47;7.50;;;;;;;19.88;72.91;101310.34;5114087;28;20227;-81
2023/10/02 08:20:24;;;;;;;11.00;6.60;;;;;;;20.06;71.12;101307.78;5109267;28;20200;-80
2023/10/02 08:22:52;;;;;;;14.05;7.07;;;;;;;20.15;71.05;101306.91;5113001;28;20202;-80
2023/10/02 08:25:23;;;;;;;13.32;7.43;;;;;;;20.26;71.00;101303.19;5111003;28;20226;-80
2023/10/02 08:27:55;;;;;;;11.63;6.90;;;;;;;20.32;69.63;101311.59;5114283;28;20206;-80
2023/10/02 08:30:31;;;;;;;11.88;6.93;;;;;;;20.38;68.91;101302.09;5119490;28;20192;-83
2023/10/02 08:33:05;;;;;;;14.60;7.43;;;;;;;20.42;68.75;101292.69;5109274;28;20199;-84
2023/10/02 08:35:33;;;;;;;12.13;6.97;;;;;;;20.43;68.88;101300.63;5108777;28;20715;-84
2023/10/02 08:37:59;;;;;;;12.65;7.32;;;;;;;20.48;69.15;101292.09;5100902;28;20230;-83
2023/10/02 08:40:26;;;;;;;13.27;7.70;;;;;;;20.56;69.20;101297.63;5103725;28;20207;-82
2023/10/02 08:42:53;;;;;;;11.80;6.70;;;;;;;20.65;68.37;101276.94;5094176;28;20210;-83
2023/10/02 08:45:20;;;;;;;13.85;7.65;;;;;;;20.72;68.44;101276.22;5114562;28;20227;-83
2023/10/02 08:47:50;;;;;;;11.63;6.88;;;;;;;20.79;68.39;101279.16;5111682;28;20203;-83
2023/10/02 08:50:17;;;;;;;14.30;6.95;;;;;;;20.89;68.38;101290.84;5104465;28;20215;-83
2023/10/02 08:52:50;;;;;;;12.60;7.38;;;;;;;21.01;67.38;101277.94;5098164;28;20554;-83
2023/10/02 08:55:33;;;;;;;11.25;6.93;;;;;;;21.11;67.34;101276.06;5110364;28;20876;-83
2023/10/02 08:58:15;;;;;;;13.48;7.22;;;;;;;21.21;66.24;101276.88;5106138;28;20771;-83
2023/10/02 09:01:05;;;;;;;12.70;7.57;;;;;;;21.33;65.56;101272.09;5109652;28;20215;-82
2023/10/02 09:03:41;;;;;;;11.75;6.78;;;;;;;21.38;64.91;101270.66;5104241;28;20702;-82
2023/10/02 09:11:34;;;;;;;10.98;7.53;;;;;;;21.53;64.94;101262.84;5109476;28;20580;-84
2023/10/02 09:14:12;;;;;;;12.20;7.07;;;;;;;21.64;64.58;101272.66;5098375;28;20227;-83
2023/10/02 09:16:45;;;;;;;12.90;7.20;;;;;;;21.73;63.78;101275.28;5095509;28;20208;-84
2023/10/02 09:19:31;;;;;;;10.48;6.85;;;;;;;21.83;63.80;101276.06;5112486;28;20208;-81
2023/10/02 09:22:06;;;;;;;13.48;7.38;;;;;;;21.99;63.11;101275.38;5108267;28;20298;-81
2023/10/02 09:24:34;;;;;;;13.50;8.00;;;;;;;22.10;62.78;101274.28;5109699;28;20214;-81
2023/10/02 09:27:20;;;;;;;11.73;7.40;;;;;;;22.25;62.07;101264.56;5102989;28;20225;-80
2023/10/02 09:29:47;;;;;;;11.02;7.03;;;;;;;22.37;61.69;101265.19;5097533;28;20207;-80
2023/10/02 09:32:25;;;;;;;12.93;7.32;;;;;;;22.45;61.40;101255.22;5107445;28;20875;-81
2023/10/02 09:35:10;;;;;;;11.85;7.10;;;;;;;22.54;61.05;101260.72;5104394;28;20231;-81
2023/10/02 09:37:38;;;;;;;10.90;7.10;;;;;;;22.62;60.81;101260.75;5103647;28;20238;-80
2023/10/02 09:40:14;;;;;;;11.98;7.05;;;;;;;22.71;61.39;101257.09;5109151;28;20609;-80
2023/10/02 09:42:48;;;;;;;10.85;6.85;;;;;;;22.84;61.27;101255.66;5111132;28;20234;-81
2023/10/02 09:45:17;;;;;;;11.80;7.25;;;;;;;22.96;60.83;101258.94;5107410;28;20291;-80
2023/10/02 09:47:45;;;;;;;12.15;7.25;;;;;;;23.08;60.33;101256.81;5101933;28;20295;-81
2023/10/02 09:50:25;;;;;;;12.15;7.78;;;;;;;23.20;59.38;101256.34;5104609;28;20212;-81
2023/10/02 09:53:00;;;;;;;12.18;6.90;;;;;;;23.29;58.50;101254.47;5097325;28;20245;-81
2023/10/02 09:55:44;;;;;;;11.35;7.32;;;;;;;23.33;58.13;101244.97;5112383;28;20305;-81
2023/10/02 09:58:27;;;;;;;12.07;7.00;;;;;;;23.33;58.53;101236.81;5108829;28;20231;-82
2023/10/02 10:01:34;;;;;;;12.43;6.38;;;;;;;23.39;58.20;101230.75;5108460;28;20204;-81
2023/10/02 10:04:00;;;;;;;12.73;7.30;;;;;;;23.45;58.06;101223.81;5102048;28;20283;-80
2023/10/02 10:06:48;;;;;;;11.52;7.15;;;;;;;23.45;57.54;101221.94;5109458;28;20199;-81
2023/10/02 10:09:49;;;;;;;12.15;7.30;;;;;;;23.46;58.09;101229.06;5102999;28;20199;-81
2023/10/02 10:12:50;;;;;;;13.43;7.40;;;;;;;23.54;58.00;101222.81;5102651;28;20196;-81
2023/10/02 10:15:23;;;;;;;13.10;7.45;;;;;;;23.66;58.06;101220.59;5107416;28;20702;-82
2023/10/02 10:17:56;;;;;;;11.85;7.15;;;;;;;23.74;58.54;101218.75;5108307;28;20231;-82
2023/10/02 10:20:23;;;;;;;11.63;7.35;;;;;;;23.81;57.94;101213.50;5110960;28;20260;-82
2023/10/02 10:22:58;;;;;;;10.55;7.28;;;;;;;23.85;57.63;101217.56;5108914;28;20206;-82
2023/10/02 10:25:42;;;;;;;10.13;6.82;;;;;;;23.87;57.35;101216.38;5106996;28;20238;-81
2023/10/02 10:28:14;;;;;;;13.30;7.20;;;;;;;23.97;57.52;101216.22;5103057;28;20199;-81
2023/10/02 10:30:45;;;;;;;11.93;7.32;;;;;;;24.02;56.38;101213.81;5111857;28;20294;-81
2023/10/02 10:33:40;;;;;;;12.85;6.55;;;;;;;24.10;56.35;101207.53;5106678;28;20214;-80
2023/10/02 10:36:33;;;;;;;10.50;7.03;;;;;;;24.16;56.44;101215.88;5099022;28;20200;-82
2023/10/02 10:39:30;;;;;;;13.75;8.00;;;;;;;24.21;56.65;101221.63;5101810;28;20584;-81
2023/10/02 10:41:57;;;;;;;12.57;6.43;;;;;;;24.28;56.57;101219.13;5105292;28;20250;-82
2023/10/02 10:44:33;;;;;;;10.60;7.13;;;;;;;24.35;55.58;101211.97;5106562;28;20277;-82
2023/10/02 10:47:03;;;;;;;11.38;7.25;;;;;;;24.38;55.38;101210.75;5108635;28;20205;-81
2023/10/02 10:49:53;;;;;;;12.88;7.82;;;;;;;24.44;55.37;101207.34;5106505;28;20214;-81
2023/10/02 10:52:39;;;;;;;14.05;7.35;;;;;;;24.45;55.96;101203.59;5106517;28;20237;-81
2023/10/02 10:55:32;;;;;;;12.13;6.97;;;;;;;24.52;55.40;101200.03;5108291;28;20286;-82
2023/10/02 10:57:59;;;;;;;11.65;6.47;;;;;;;24.55;54.96;101205.09;5103958;28;20267;-82
2023/10/02 11:00:26;;;;;;;13.60;7.22;;;;;;;24.58;55.17;101207.47;5104705;28;20207;-82
2023/10/02 11:02:57;;;;;;;11.30;6.95;;;;;;;24.62;55.44;101196.22;5102715;28;20219;-80
2023/10/02 11:05:24;;;;;;;10.88;6.97;;;;;;;24.67;55.26;101194.69;5104212;28;20222;-82
2023/10/02 11:07:51;;;;;;;11.07;7.00;;;;;;;24.75;55.24;101211.00;5105389;28;20261;-82
2023/10/02 11:10:25;;;;;;;10.07;6.57;;;;;;;24.82;55.05;101206.56;5103708;28;20207;-82
2023/10/02 11:12:55;;;;;;;12.23;6.70;;;;;;;24.91;55.09;101191.84;5106026;28;20239;-81
2023/10/02 11:18:18;;;;;;;11.82;6.63;;;;;;;25.04;54.04;101196.78;5104733;28;20238;-81
2023/10/02 11:20:47;;;;;;;11.38;7.32;;;;;;;25.07;54.13;101193.72;5107442;28;20222;-82
2023/10/02 11:23:23;;;;;;;10.32;7.13;;;;;;;25.10;54.49;101195.19;5105465;28;20215;-83
2023/10/02 11:25:58;;;;;;;11.73;7.65;;;;;;;25.18;53.92;101189.72;5107897;28;20606;-81
2023/10/02 11:28:29;;;;;;;10.70;6.63;;;;;;;25.17;53.77;101190.75;5108709;28;20202;-82
2023/10/02 11:31:29;;;;;;;12.32;6.85;;;;;;;25.21;54.28;101189.38;5103523;28;20202;-81
2023/10/02 11:34:00;;;;;;;9.95;6.85;;;;;;;25.31;53.22;101186.41;5106543;28;20219;-82
2023/10/02 11:36:28;;;;;;;12.52;6.90;;;;;;;25.35;53.95;101180.41;5105982;28;20208;-82
2023/10/02 11:38:55;;;;;;;12.48;7.05;;;;;;;25.45;53.77;101178.28;5111906;28;20563;-81
2023/10/02 11:41:23;;;;;;;11.68;6.97;;;;;;;25.54;53.78;101181.81;5108221;28;20200;-82
2023/10/02 11:43:50;;;;;;;10.30;6.55;;;;;;;25.62;53.50;101176.31;5114455;28;20219;-81
2023/10/02 11:46:16;;;;;;;13.73;7.03;;;;;;;25.66;52.71;101176.81;5112464;28;20206;-82
2023/10/02 11:48:43;;;;;;;9.88;6.43;;;;;;;25.71;52.81;101169.78;5111476;28;20205;-82
2023/10/02 11:51:10;;;;;;;11.77;6.80;;;;;;;25.73;52.61;101167.72;5104761;28;20204;-81
2023/10/02 11:53:39;;;;;;;10.93;7.05;;;;;;;25.69;52.50;101165.53;5107220;28;20685;-81
2023/10/02 11:56:05;;;;;;;13.55;7.35;;;;;;;25.69;53.19;101166.38;5105848;28;20667;-82
2023/10/02 11:58:33;;;;;;;11.02;7.13;;;;;;;25.67;53.13;101167.59;5110840;28;20234;-82
2023/10/02 12:01:06;;;;;;;9.52;5.93;;;;;;;25.66;53.04;101154.97;5104875;28;20203;-81
2023/10/02 12:03:36;;;;;;;10.57;6.32;;;;;;;25.67;52.97;101149.34;5111284;28;20206;-82